Time,TemperatureF,DewpointF,PressureIn,WindDirection,WindDirectionDegrees,WindSpeedMPH,WindSpeedGustMPH,Humidity,HourlyPrecipIn,Conditions,Clouds,dailyrainin,SoftwareType,DateUTC
2013-01-11 00:00:00,38.7,33.7,30.40,West,272,0.0,0.0,82,0.00,,---,0.00,VWS V14.00,2013-01-11 05:00:00,
2013-01-11 00:03:00,38.9,33.9,30.40,West,272,0.0,0.0,82,0.00,,---,0.00,VWS V14.00,2013-01-11 05:03:00,
2013-01-11 00:08:00,38.3,32.7,30.40,West,272,0.0,0.0,80,0.00,,---,0.00,VWS V14.00,2013-01-11 05:08:00,
2013-01-11 00:13:00,37.7,32.4,30.40,West,272,0.0,0.0,81,0.00,,---,0.00,VWS V14.00,2013-01-11 05:13:00,
2013-01-11 00:18:00,38.2,33.2,30.40,West,272,0.0,0.0,82,0.00,,---,0.00,VWS V14.00,2013-01-11 05:18:00,
2013-01-11 00:23:00,38.4,33.1,30.39,West,271,0.0,2.0,81,0.00,,---,0.00,VWS V14.00,2013-01-11 05:23:00,
2013-01-11 00:28:00,38.6,33.0,30.40,West,270,0.0,0.0,80,0.00,,---,0.00,VWS V14.00,2013-01-11 05:28:00,
2013-01-11 00:33:00,38.6,33.0,30.39,West,270,0.0,0.0,80,0.00,,---,0.00,VWS V14.00,2013-01-11 05:33:00,
2013-01-11 00:38:00,38.1,32.8,30.39,West,271,0.0,0.0,81,0.00,,---,0.00,VWS V14.00,2013-01-11 05:38:00,
2013-01-11 00:43:00,37.6,32.6,30.39,West,270,0.0,0.0,82,0.00,,---,0.00,VWS V14.00,2013-01-11 05:43:00,
2013-01-11 00:48:00,37.6,33.2,30.39,West,271,0.0,0.0,84,0.00,,---,0.00,VWS V14.00,2013-01-11 05:48:00,
2013-01-11 00:53:00,37.3,32.9,30.39,West,270,0.0,0.0,84,0.00,,---,0.00,VWS V14.00,2013-01-11 05:53:00,
2013-01-11 00:58:00,36.8,32.1,30.39,West,270,0.0,0.0,83,0.00,,---,0.00,VWS V14.00,2013-01-11 05:58:00,
2013-01-11 01:03:00,36.4,32.0,30.39,West,270,0.0,0.0,84,0.00,,---,0.00,VWS V14.00,2013-01-11 06:03:00,
2013-01-11 01:08:00,36.7,32.3,30.39,West,270,0.0,1.0,84,0.00,,---,0.00,VWS V14.00,2013-01-11 06:08:00,
2013-01-11 01:13:00,37.2,32.2,30.39,West,270,0.0,1.0,82,0.00,,---,0.00,VWS V14.00,2013-01-11 06:13:00,
2013-01-11 01:18:00,37.7,32.1,30.39,West,270,0.0,1.0,80,0.00,,---,0.00,VWS V14.00,2013-01-11 06:18:00,
2013-01-11 01:23:00,37.5,31.9,30.39,West,270,0.0,1.0,80,0.00,,---,0.00,VWS V14.00,2013-01-11 06:23:00,
2013-01-11 01:28:00,36.8,31.2,30.39,West,270,0.0,0.0,80,0.00,,---,0.00,VWS V14.00,2013-01-11 06:28:00,
2013-01-11 01:33:00,36.1,31.1,30.39,West,270,0.0,0.0,82,0.00,,---,0.00,VWS V14.00,2013-01-11 06:33:00,
2013-01-11 01:38:00,35.9,31.2,30.39,West,270,0.0,0.0,83,0.00,,---,0.00,VWS V14.00,2013-01-11 06:38:00,
2013-01-11 01:43:00,36.2,31.5,30.38,West,270,0.0,0.0,83,0.00,,---,0.00,VWS V14.00,2013-01-11 06:43:00,
2013-01-11 01:48:00,36.7,32.3,30.38,West,270,0.0,0.0,84,0.00,,---,0.00,VWS V14.00,2013-01-11 06:48:00,
2013-01-11 01:53:00,36.8,32.4,30.39,West,270,0.0,1.0,84,0.00,,---,0.00,VWS V14.00,2013-01-11 06:53:00,
2013-01-11 01:58:00,36.9,32.8,30.38,West,270,0.0,0.0,85,0.00,,---,0.00,VWS V14.00,2013-01-11 06:58:00,
2013-01-11 02:03:00,36.2,31.8,30.38,West,270,0.0,0.0,84,0.00,,---,0.00,VWS V14.00,2013-01-11 07:03:00,
2013-01-11 02:08:00,36.2,31.8,30.38,West,270,0.0,0.0,84,0.00,,---,0.00,VWS V14.00,2013-01-11 07:08:00,
2013-01-11 02:13:00,36.5,32.1,30.39,West,270,0.0,0.0,84,0.00,,---,0.00,VWS V14.00,2013-01-11 07:13:00,
2013-01-11 02:18:00,36.9,31.9,30.39,West,270,0.0,0.0,82,0.00,,---,0.00,VWS V14.00,2013-01-11 07:18:00,
2013-01-11 02:23:00,36.7,31.7,30.39,West,270,0.0,0.0,82,0.00,,---,0.00,VWS V14.00,2013-01-11 07:23:00,
2013-01-11 02:28:00,37.1,32.4,30.39,West,270,0.0,0.0,83,0.00,,---,0.00,VWS V14.00,2013-01-11 07:28:00,
2013-01-11 02:33:00,36.5,31.2,30.38,West,270,0.0,0.0,81,0.00,,---,0.00,VWS V14.00,2013-01-11 07:33:00,
2013-01-11 02:38:00,36.3,31.0,30.38,West,270,0.0,1.0,81,0.00,,---,0.00,VWS V14.00,2013-01-11 07:38:00,
2013-01-11 02:43:00,37.6,31.4,30.38,West,270,0.0,1.0,78,0.00,,---,0.00,VWS V14.00,2013-01-11 07:43:00,
2013-01-11 02:48:00,36.5,30.3,30.38,West,270,0.0,1.0,78,0.00,,---,0.00,VWS V14.00,2013-01-11 07:48:00,
2013-01-11 02:53:00,35.9,30.3,30.38,West,270,0.0,1.0,80,0.00,,---,0.00,VWS V14.00,2013-01-11 07:53:00,
2013-01-11 02:58:00,36.4,31.1,30.38,West,270,0.0,0.0,81,0.00,,---,0.00,VWS V14.00,2013-01-11 07:58:00,
2013-01-11 03:03:00,37.4,31.5,30.37,West,270,0.0,0.0,79,0.00,,---,0.00,VWS V14.00,2013-01-11 08:03:00,
2013-01-11 03:08:00,38.2,32.6,30.37,West,270,0.0,0.0,80,0.00,,---,0.00,VWS V14.00,2013-01-11 08:08:00,
2013-01-11 03:13:00,38.4,32.8,30.37,West,270,0.0,0.0,80,0.00,,---,0.00,VWS V14.00,2013-01-11 08:13:00,
2013-01-11 03:18:00,37.6,32.3,30.37,West,270,0.0,0.0,81,0.00,,---,0.00,VWS V14.00,2013-01-11 08:18:00,
2013-01-11 03:23:00,37.6,32.6,30.36,WSW,252,2.0,2.0,82,0.00,,---,0.00,VWS V14.00,2013-01-11 08:23:00,
2013-01-11 03:28:00,38.5,32.2,30.37,WSW,252,1.0,2.0,78,0.00,,---,0.00,VWS V14.00,2013-01-11 08:28:00,
2013-01-11 03:33:00,39.5,31.9,30.36,WSW,251,0.0,2.0,74,0.00,,---,0.00,VWS V14.00,2013-01-11 08:33:00,
2013-01-11 03:38:00,40.2,31.6,30.36,WSW,243,1.0,3.0,71,0.00,,---,0.00,VWS V14.00,2013-01-11 08:38:00,
2013-01-11 03:43:00,41.2,31.5,30.36,SSW,208,0.0,5.0,68,0.00,,---,0.00,VWS V14.00,2013-01-11 08:43:00,
2013-01-11 03:48:00,41.9,31.4,30.36,SSW,202,3.0,5.0,66,0.00,,---,0.00,VWS V14.00,2013-01-11 08:48:00,
2013-01-11 03:53:00,42.9,31.2,30.36,SSW,199,3.0,8.0,63,0.00,,---,0.00,VWS V14.00,2013-01-11 08:53:00,
2013-01-11 03:58:00,43.2,31.1,30.36,SSW,196,4.0,6.0,62,0.00,,---,0.00,VWS V14.00,2013-01-11 08:58:00,
2013-01-11 04:03:00,43.5,31.0,30.35,South,190,0.0,7.0,61,0.00,,---,0.00,VWS V14.00,2013-01-11 09:03:00,
2013-01-11 04:08:00,43.7,30.7,30.35,SW,214,4.0,7.0,60,0.00,,---,0.00,VWS V14.00,2013-01-11 09:08:00,
2013-01-11 04:13:00,43.9,30.5,30.35,SSW,211,4.0,7.0,59,0.00,,---,0.00,VWS V14.00,2013-01-11 09:13:00,
2013-01-11 04:18:00,43.8,30.8,30.35,SSW,200,0.0,7.0,60,0.00,,---,0.00,VWS V14.00,2013-01-11 09:18:00,
2013-01-11 04:23:00,43.8,30.4,30.35,South,178,5.0,7.0,59,0.00,,---,0.00,VWS V14.00,2013-01-11 09:23:00,
2013-01-11 04:28:00,44.0,31.0,30.35,SSW,210,4.0,5.0,60,0.00,,---,0.00,VWS V14.00,2013-01-11 09:28:00,
2013-01-11 04:33:00,44.0,30.6,30.35,SSW,196,4.0,7.0,59,0.00,,---,0.00,VWS V14.00,2013-01-11 09:33:00,
2013-01-11 04:38:00,44.1,30.7,30.35,SSW,195,5.0,7.0,59,0.00,,---,0.00,VWS V14.00,2013-01-11 09:38:00,
2013-01-11 04:43:00,44.2,30.8,30.35,SW,221,4.0,7.0,59,0.00,,---,0.00,VWS V14.00,2013-01-11 09:43:00,
2013-01-11 04:48:00,44.3,30.9,30.36,South,190,6.0,13.0,59,0.00,,---,0.00,VWS V14.00,2013-01-11 09:48:00,
2013-01-11 04:53:00,44.3,30.9,30.35,SW,224,7.0,13.0,59,0.00,,---,0.00,VWS V14.00,2013-01-11 09:53:00,
2013-01-11 04:58:00,44.2,30.8,30.35,SSW,200,1.0,8.0,59,0.00,,---,0.00,VWS V14.00,2013-01-11 09:58:00,
2013-01-11 05:03:00,44.1,30.7,30.35,SW,215,0.0,8.0,59,0.00,,---,0.00,VWS V14.00,2013-01-11 10:03:00,
2013-01-11 05:08:00,44.1,30.7,30.34,SW,225,5.0,11.0,59,0.00,,---,0.00,VWS V14.00,2013-01-11 10:08:00,
2013-01-11 05:13:00,44.1,30.7,30.34,SSW,213,8.0,11.0,59,0.00,,---,0.00,VWS V14.00,2013-01-11 10:13:00,
2013-01-11 05:18:00,44.1,31.1,30.34,SSW,195,8.0,12.0,60,0.00,,---,0.00,VWS V14.00,2013-01-11 10:18:00,
2013-01-11 05:23:00,44.0,30.6,30.34,SSW,208,5.0,12.0,59,0.00,,---,0.00,VWS V14.00,2013-01-11 10:23:00,
2013-01-11 05:28:00,43.9,30.5,30.34,SSW,209,3.0,7.0,59,0.00,,---,0.00,VWS V14.00,2013-01-11 10:28:00,
2013-01-11 05:33:00,43.8,30.4,30.34,South,187,2.0,11.0,59,0.00,,---,0.00,VWS V14.00,2013-01-11 10:33:00,
2013-01-11 05:38:00,43.7,30.3,30.33,SSW,193,3.0,11.0,59,0.00,,---,0.00,VWS V14.00,2013-01-11 10:38:00,
2013-01-11 05:43:00,43.6,30.2,30.33,SSW,206,4.0,11.0,59,0.00,,---,0.00,VWS V14.00,2013-01-11 10:43:00,
2013-01-11 05:48:00,43.4,30.5,30.33,SW,220,9.0,11.0,60,0.00,,---,0.00,VWS V14.00,2013-01-11 10:48:00,
2013-01-11 05:53:00,43.3,30.4,30.33,SW,224,6.0,11.0,60,0.00,,---,0.00,VWS V14.00,2013-01-11 10:53:00,
2013-01-11 05:58:00,43.1,30.6,30.33,SSW,207,0.0,5.0,61,0.00,,---,0.00,VWS V14.00,2013-01-11 10:58:00,
2013-01-11 06:03:00,43.0,30.5,30.33,SSW,199,5.0,10.0,61,0.00,,---,0.00,VWS V14.00,2013-01-11 11:03:00,
2013-01-11 06:08:00,43.1,30.2,30.33,South,191,1.0,12.0,60,0.00,,---,0.00,VWS V14.00,2013-01-11 11:08:00,
2013-01-11 06:13:00,43.1,30.2,30.33,SSW,194,2.0,12.0,60,0.00,,---,0.00,VWS V14.00,2013-01-11 11:13:00,
2013-01-11 06:18:00,43.1,30.2,30.33,SW,216,4.0,12.0,60,0.00,,---,0.00,VWS V14.00,2013-01-11 11:18:00,
2013-01-11 06:23:00,43.0,30.1,30.33,SW,220,5.0,12.0,60,0.00,,---,0.00,VWS V14.00,2013-01-11 11:23:00,
2013-01-11 06:28:00,42.8,29.9,30.33,SSW,209,3.0,5.0,60,0.00,,---,0.00,VWS V14.00,2013-01-11 11:28:00,
2013-01-11 06:33:00,42.8,29.9,30.32,South,175,5.0,8.0,60,0.00,,---,0.00,VWS V14.00,2013-01-11 11:33:00,
2013-01-11 06:38:00,42.9,30.0,30.32,SSE,157,4.0,8.0,60,0.00,,---,0.00,VWS V14.00,2013-01-11 11:38:00,
2013-01-11 06:43:00,42.9,30.4,30.31,SSW,194,3.0,8.0,61,0.00,,---,0.00,VWS V14.00,2013-01-11 11:43:00,
2013-01-11 06:48:00,42.9,30.0,30.31,South,191,1.0,8.0,60,0.00,,---,0.00,VWS V14.00,2013-01-11 11:48:00,
2013-01-11 06:53:00,42.8,30.3,30.31,SSW,195,0.0,8.0,61,0.00,,---,0.00,VWS V14.00,2013-01-11 11:53:00,
2013-01-11 06:58:00,42.8,30.3,30.31,SSW,196,0.0,3.0,61,0.00,,---,0.00,VWS V14.00,2013-01-11 11:58:00,
2013-01-11 07:03:00,43.1,30.2,30.32,SSW,194,3.0,8.0,60,0.00,,---,0.00,VWS V14.00,2013-01-11 12:03:00,
2013-01-11 07:08:00,43.3,30.4,30.32,SSW,211,2.0,8.0,60,0.00,,---,0.00,VWS V14.00,2013-01-11 12:08:00,
2013-01-11 07:13:00,43.6,29.8,30.32,SSW,192,5.0,8.0,58,0.00,,---,0.00,VWS V14.00,2013-01-11 12:13:00,
2013-01-11 07:18:00,43.7,29.9,30.32,South,188,3.0,9.0,58,0.00,,---,0.00,VWS V14.00,2013-01-11 12:18:00,
2013-01-11 07:23:00,44.0,29.8,30.31,SE,145,5.0,10.0,57,0.00,,---,0.00,VWS V14.00,2013-01-11 12:23:00,
2013-01-11 07:28:00,44.1,29.9,30.30,SSE,163,5.0,10.0,57,0.00,,---,0.00,VWS V14.00,2013-01-11 12:28:00,
2013-01-11 07:33:00,43.9,30.1,30.31,South,186,1.0,10.0,58,0.00,,---,0.00,VWS V14.00,2013-01-11 12:33:00,
2013-01-11 07:38:00,43.8,30.0,30.31,South,171,1.0,10.0,58,0.00,,---,0.00,VWS V14.00,2013-01-11 12:38:00,
2013-01-11 07:43:00,43.7,30.3,30.31,SSW,192,2.0,10.0,59,0.00,,---,0.00,VWS V14.00,2013-01-11 12:43:00,
2013-01-11 07:48:00,43.7,30.3,30.31,South,186,2.0,10.0,59,0.00,,---,0.00,VWS V14.00,2013-01-11 12:48:00,
2013-01-11 07:53:00,43.8,30.0,30.30,South,184,2.0,10.0,58,0.00,,---,0.00,VWS V14.00,2013-01-11 12:53:00,
2013-01-11 07:58:00,44.0,30.2,30.31,SSW,196,1.0,4.0,58,0.00,,---,0.00,VWS V14.00,2013-01-11 12:58:00,
2013-01-11 08:03:00,44.1,30.3,30.32,SSW,196,3.0,4.0,58,0.00,,---,0.00,VWS V14.00,2013-01-11 13:03:00,
2013-01-11 08:08:00,44.2,30.0,30.31,South,187,3.0,5.0,57,0.00,,---,0.00,VWS V14.00,2013-01-11 13:08:00,
2013-01-11 08:13:00,44.4,30.1,30.32,South,174,0.0,8.0,57,0.00,,---,0.00,VWS V14.00,2013-01-11 13:13:00,
2013-01-11 08:18:00,44.5,29.8,30.32,South,173,4.0,8.0,56,0.00,,---,0.00,VWS V14.00,2013-01-11 13:18:00,
2013-01-11 08:23:00,44.7,30.4,30.32,South,177,1.0,8.0,57,0.00,,---,0.00,VWS V14.00,2013-01-11 13:23:00,
2013-01-11 08:28:00,44.7,30.0,30.32,South,179,8.0,8.0,56,0.00,,---,0.00,VWS V14.00,2013-01-11 13:28:00,
2013-01-11 08:33:00,44.8,30.1,30.31,South,178,7.0,8.0,56,0.00,,---,0.00,VWS V14.00,2013-01-11 13:33:00,
2013-01-11 08:38:00,45.0,30.3,30.31,South,183,1.0,8.0,56,0.00,,---,0.00,VWS V14.00,2013-01-11 13:38:00,
2013-01-11 08:43:00,45.0,30.7,30.31,SSW,194,0.0,8.0,57,0.00,,---,0.00,VWS V14.00,2013-01-11 13:43:00,
2013-01-11 08:48:00,45.0,30.7,30.31,South,182,4.0,8.0,57,0.00,,---,0.00,VWS V14.00,2013-01-11 13:48:00,
2013-01-11 08:53:00,45.0,30.3,30.31,SSW,192,4.0,8.0,56,0.00,,---,0.00,VWS V14.00,2013-01-11 13:53:00,
2013-01-11 08:58:00,45.1,30.4,30.31,South,171,6.0,9.0,56,0.00,,---,0.00,VWS V14.00,2013-01-11 13:58:00,
2013-01-11 09:03:00,45.1,30.4,30.31,SSE,161,6.0,9.0,56,0.00,,---,0.00,VWS V14.00,2013-01-11 14:03:00,
2013-01-11 09:08:00,45.1,30.4,30.30,SSE,168,4.0,10.0,56,0.00,,---,0.00,VWS V14.00,2013-01-11 14:08:00,
2013-01-11 09:13:00,45.2,30.5,30.30,SE,142,6.0,10.0,56,0.00,,---,0.00,VWS V14.00,2013-01-11 14:13:00,
2013-01-11 09:18:00,45.3,31.0,30.30,SSE,153,7.0,11.0,57,0.00,,---,0.00,VWS V14.00,2013-01-11 14:18:00,
2013-01-11 09:23:00,45.3,31.0,30.30,South,169,6.0,11.0,57,0.00,,---,0.00,VWS V14.00,2013-01-11 14:23:00,
2013-01-11 09:28:00,45.4,31.1,30.30,SE,144,4.0,5.0,57,0.00,,---,0.00,VWS V14.00,2013-01-11 14:28:00,
2013-01-11 09:33:00,45.4,31.1,30.30,SSE,165,6.0,12.0,57,0.00,,---,0.00,VWS V14.00,2013-01-11 14:33:00,
2013-01-11 09:38:00,45.6,31.3,30.29,South,180,9.0,12.0,57,0.00,,---,0.00,VWS V14.00,2013-01-11 14:38:00,
2013-01-11 09:43:00,45.8,31.0,30.28,SSW,193,8.0,15.0,56,0.00,,---,0.00,VWS V14.00,2013-01-11 14:43:00,
2013-01-11 09:48:00,45.8,31.0,30.29,South,172,7.0,15.0,56,0.00,,---,0.00,VWS V14.00,2013-01-11 14:48:00,
2013-01-11 09:53:00,45.8,31.0,30.28,South,179,6.0,15.0,56,0.00,,---,0.00,VWS V14.00,2013-01-11 14:53:00,
2013-01-11 09:58:00,45.7,31.4,30.28,SSE,168,5.0,10.0,57,0.00,,---,0.00,VWS V14.00,2013-01-11 14:58:00,
2013-01-11 10:03:00,45.6,31.7,30.28,South,189,2.0,11.0,58,0.00,,---,0.00,VWS V14.00,2013-01-11 15:03:00,
2013-01-11 10:08:00,45.8,31.9,30.28,SSW,207,4.0,11.0,58,0.00,,---,0.00,VWS V14.00,2013-01-11 15:08:00,
2013-01-11 10:13:00,45.9,32.4,30.27,South,185,4.0,11.0,59,0.00,,---,0.00,VWS V14.00,2013-01-11 15:13:00,
2013-01-11 10:18:00,46.3,32.3,30.27,SW,215,2.0,11.0,58,0.00,,---,0.00,VWS V14.00,2013-01-11 15:18:00,
2013-01-11 10:23:00,46.5,32.5,30.27,SW,227,6.0,11.0,58,0.00,,---,0.00,VWS V14.00,2013-01-11 15:23:00,
2013-01-11 10:28:00,46.8,33.2,30.27,SW,217,4.0,9.0,59,0.00,,---,0.00,VWS V14.00,2013-01-11 15:28:00,
2013-01-11 10:33:00,47.0,33.0,30.26,South,186,3.0,9.0,58,0.00,,---,0.00,VWS V14.00,2013-01-11 15:33:00,
2013-01-11 10:38:00,47.2,33.2,30.25,SSW,205,0.0,10.0,58,0.00,,---,0.00,VWS V14.00,2013-01-11 15:38:00,
2013-01-11 10:43:00,47.6,33.6,30.25,SW,215,6.0,11.0,58,0.00,,---,0.00,VWS V14.00,2013-01-11 15:43:00,
2013-01-11 10:48:00,47.7,34.1,30.25,SW,216,3.0,11.0,59,0.00,,---,0.00,VWS V14.00,2013-01-11 15:48:00,
2013-01-11 10:53:00,47.8,34.6,30.25,SSW,208,2.0,11.0,60,0.00,,---,0.00,VWS V14.00,2013-01-11 15:53:00,
2013-01-11 10:58:00,47.9,34.7,30.25,SSW,202,2.0,10.0,60,0.00,,---,0.00,VWS V14.00,2013-01-11 15:58:00,
2013-01-11 11:03:00,47.9,34.7,30.24,SSW,213,5.0,10.0,60,0.00,,---,0.00,VWS V14.00,2013-01-11 16:03:00,
2013-01-11 11:08:00,48.0,35.2,30.24,SSW,192,8.0,10.0,61,0.00,,---,0.00,VWS V14.00,2013-01-11 16:08:00,
2013-01-11 11:13:00,48.1,35.3,30.24,SSW,203,2.0,10.0,61,0.00,,---,0.00,VWS V14.00,2013-01-11 16:13:00,
2013-01-11 11:18:00,48.1,35.7,30.23,SSE,159,8.0,11.0,62,0.00,,---,0.00,VWS V14.00,2013-01-11 16:18:00,
2013-01-11 11:23:00,48.2,35.8,30.22,SE,146,7.0,11.0,62,0.00,,---,0.00,VWS V14.00,2013-01-11 16:23:00,
2013-01-11 11:28:00,48.2,35.8,30.22,SSW,199,8.0,9.0,62,0.00,,---,0.00,VWS V14.00,2013-01-11 16:28:00,
2013-01-11 11:33:00,48.2,36.2,30.22,South,175,9.0,12.0,63,0.00,,---,0.00,VWS V14.00,2013-01-11 16:33:00,
2013-01-11 11:38:00,48.1,36.5,30.21,South,186,2.0,13.0,64,0.00,,---,0.00,VWS V14.00,2013-01-11 16:38:00,
2013-01-11 11:43:00,48.2,37.4,30.21,South,180,3.0,13.0,66,0.00,,---,0.00,VWS V14.00,2013-01-11 16:43:00,
2013-01-11 11:48:00,48.1,37.7,30.20,SSE,163,13.0,13.0,67,0.00,,---,0.00,VWS V14.00,2013-01-11 16:48:00,
2013-01-11 11:53:00,48.1,38.0,30.19,South,180,7.0,14.0,68,0.00,,---,0.00,VWS V14.00,2013-01-11 16:53:00,
2013-01-11 11:58:00,48.1,38.0,30.19,South,184,5.0,11.0,68,0.00,,---,0.00,VWS V14.00,2013-01-11 16:58:00,
2013-01-11 12:03:00,48.1,38.4,30.18,South,190,12.0,12.0,69,0.00,,---,0.00,VWS V14.00,2013-01-11 17:03:00,
2013-01-11 12:08:00,48.2,38.5,30.18,SSE,162,10.0,14.0,69,0.00,,---,0.00,VWS V14.00,2013-01-11 17:08:00,
2013-01-11 12:13:00,48.3,38.6,30.18,SSE,155,8.0,14.0,69,0.00,,---,0.00,VWS V14.00,2013-01-11 17:13:00,
2013-01-11 12:18:00,48.4,38.3,30.18,SSW,207,10.0,17.0,68,0.00,,---,0.00,VWS V14.00,2013-01-11 17:18:00,
2013-01-11 12:23:00,48.4,38.3,30.17,South,182,8.0,17.0,68,0.00,,---,0.00,VWS V14.00,2013-01-11 17:23:00,
2013-01-11 12:28:00,48.5,38.4,30.17,South,186,8.0,11.0,68,0.00,,---,0.00,VWS V14.00,2013-01-11 17:28:00,
2013-01-11 12:33:00,48.5,38.4,30.16,South,186,4.0,17.0,68,0.00,,---,0.00,VWS V14.00,2013-01-11 17:33:00,
2013-01-11 12:38:00,48.6,38.5,30.16,SSW,192,6.0,17.0,68,0.00,,---,0.00,VWS V14.00,2013-01-11 17:38:00,
2013-01-11 12:43:00,48.9,38.8,30.15,SW,217,2.0,17.0,68,0.00,,---,0.00,VWS V14.00,2013-01-11 17:43:00,
2013-01-11 12:48:00,49.1,38.6,30.16,South,184,6.0,17.0,67,0.00,,---,0.00,VWS V14.00,2013-01-11 17:48:00,
2013-01-11 12:53:00,49.2,39.1,30.16,South,179,0.0,17.0,68,0.00,,---,0.00,VWS V14.00,2013-01-11 17:53:00,
2013-01-11 12:58:00,49.1,38.6,30.15,SSE,147,5.0,8.0,67,0.00,,---,0.00,VWS V14.00,2013-01-11 17:58:00,
2013-01-11 13:03:00,49.0,38.9,30.15,SE,140,9.0,12.0,68,0.00,,---,0.00,VWS V14.00,2013-01-11 18:03:00,
2013-01-11 13:08:00,48.9,39.2,30.14,SSE,150,5.0,12.0,69,0.00,,---,0.00,VWS V14.00,2013-01-11 18:08:00,
2013-01-11 13:13:00,49.0,39.3,30.14,SE,144,8.0,12.0,69,0.00,,---,0.00,VWS V14.00,2013-01-11 18:13:00,
2013-01-11 13:18:00,49.2,39.5,30.14,South,173,6.0,12.0,69,0.00,,---,0.00,VWS V14.00,2013-01-11 18:18:00,
2013-01-11 13:23:00,49.4,40.0,30.14,SE,142,8.0,12.0,70,0.00,,---,0.00,VWS V14.00,2013-01-11 18:23:00,
2013-01-11 13:28:00,49.8,40.0,30.13,SSE,160,5.0,7.0,69,0.00,,---,0.00,VWS V14.00,2013-01-11 18:28:00,
2013-01-11 13:33:00,50.0,40.6,30.12,SSE,165,7.0,13.0,70,0.00,,---,0.00,VWS V14.00,2013-01-11 18:33:00,
2013-01-11 13:38:00,50.1,40.7,30.12,SSE,159,8.0,13.0,70,0.00,,---,0.00,VWS V14.00,2013-01-11 18:38:00,
2013-01-11 13:43:00,50.2,40.8,30.12,SSW,195,8.0,13.0,70,0.00,,---,0.00,VWS V14.00,2013-01-11 18:43:00,
2013-01-11 13:48:00,50.3,40.9,30.12,South,189,6.0,13.0,70,0.00,,---,0.00,VWS V14.00,2013-01-11 18:48:00,
2013-01-11 13:53:00,50.4,41.0,30.12,SSW,192,8.0,13.0,70,0.00,,---,0.00,VWS V14.00,2013-01-11 18:53:00,
2013-01-11 13:58:00,50.4,41.0,30.12,SSE,157,7.0,9.0,70,0.00,,---,0.00,VWS V14.00,2013-01-11 18:58:00,
2013-01-11 14:03:00,50.4,41.4,30.12,South,191,6.0,12.0,71,0.00,,---,0.00,VWS V14.00,2013-01-11 19:03:00,
2013-01-11 14:08:00,50.5,41.8,30.11,SSE,158,8.0,14.0,72,0.00,,---,0.00,VWS V14.00,2013-01-11 19:08:00,
2013-01-11 14:13:00,50.5,41.8,30.11,South,180,9.0,14.0,72,0.00,,---,0.00,VWS V14.00,2013-01-11 19:13:00,
2013-01-11 14:18:00,50.6,41.9,30.11,SE,146,9.0,14.0,72,0.00,,---,0.00,VWS V14.00,2013-01-11 19:18:00,
2013-01-11 14:23:00,50.4,41.7,30.10,SSE,153,7.0,14.0,72,0.00,,---,0.00,VWS V14.00,2013-01-11 19:23:00,
2013-01-11 14:28:00,50.3,42.0,30.11,South,175,10.0,10.0,73,0.00,,---,0.00,VWS V14.00,2013-01-11 19:28:00,
2013-01-11 14:33:00,50.3,42.3,30.11,SE,138,8.0,11.0,74,0.00,,---,0.00,VWS V14.00,2013-01-11 19:33:00,
2013-01-11 14:38:00,50.2,42.2,30.11,SSE,161,8.0,13.0,74,0.00,,---,0.00,VWS V14.00,2013-01-11 19:38:00,
2013-01-11 14:43:00,50.1,42.5,30.11,SSE,161,9.0,13.0,75,0.00,,---,0.00,VWS V14.00,2013-01-11 19:43:00,
2013-01-11 14:48:00,50.0,42.7,30.10,SE,140,8.0,18.0,76,0.00,,---,0.00,VWS V14.00,2013-01-11 19:48:00,
2013-01-11 14:53:00,50.0,43.1,30.10,SSE,148,7.0,18.0,77,0.00,,---,0.00,VWS V14.00,2013-01-11 19:53:00,
2013-01-11 14:58:00,49.9,43.0,30.10,SE,145,8.0,10.0,77,0.00,,---,0.00,VWS V14.00,2013-01-11 19:58:00,
2013-01-11 15:03:00,49.7,43.1,30.10,SSE,155,10.0,13.0,78,0.00,,---,0.00,VWS V14.00,2013-01-11 20:03:00,
2013-01-11 15:08:00,49.6,43.4,30.10,South,178,7.0,15.0,79,0.00,,---,0.00,VWS V14.00,2013-01-11 20:08:00,
2013-01-11 15:13:00,49.4,43.2,30.09,South,177,10.0,15.0,79,0.00,,---,0.00,VWS V14.00,2013-01-11 20:13:00,
2013-01-11 15:18:00,49.3,43.1,30.10,SSE,155,5.0,15.0,79,0.00,,---,0.00,VWS V14.00,2013-01-11 20:18:00,
2013-01-11 15:23:00,49.3,43.1,30.10,SSE,157,6.0,15.0,79,0.00,,---,0.00,VWS V14.00,2013-01-11 20:23:00,
2013-01-11 15:28:00,49.2,43.0,30.10,SSE,167,10.0,10.0,79,0.00,,---,0.00,VWS V14.00,2013-01-11 20:28:00,
2013-01-11 15:33:00,49.2,42.6,30.10,SSE,168,10.0,10.0,78,0.00,,---,0.00,VWS V14.00,2013-01-11 20:33:00,
2013-01-11 15:38:00,49.2,42.6,30.09,South,173,9.0,11.0,78,0.00,,---,0.00,VWS V14.00,2013-01-11 20:38:00,
2013-01-11 15:43:00,49.0,42.8,30.09,SSE,159,8.0,12.0,79,0.00,,---,0.00,VWS V14.00,2013-01-11 20:43:00,
2013-01-11 15:48:00,48.6,42.7,30.09,SE,127,6.0,12.0,80,0.01,,---,0.01,VWS V14.00,2013-01-11 20:48:00,
2013-01-11 15:53:00,48.2,42.7,30.09,SSE,151,10.0,12.0,81,0.01,,---,0.01,VWS V14.00,2013-01-11 20:53:00,
2013-01-11 15:58:00,47.9,42.7,30.09,SSE,159,8.0,10.0,82,0.01,,---,0.01,VWS V14.00,2013-01-11 20:58:00,
2013-01-11 16:03:00,47.8,42.9,30.09,SSE,159,8.0,10.0,83,0.01,,---,0.01,VWS V14.00,2013-01-11 21:03:00,
2013-01-11 16:08:00,47.7,42.8,30.09,SSW,196,6.0,12.0,83,0.01,,---,0.01,VWS V14.00,2013-01-11 21:08:00,
2013-01-11 16:13:00,47.6,42.7,30.08,SSW,196,2.0,13.0,83,0.01,,---,0.01,VWS V14.00,2013-01-11 21:13:00,
2013-01-11 16:18:00,47.7,43.1,30.08,SSE,152,4.0,13.0,84,0.01,,---,0.01,VWS V14.00,2013-01-11 21:18:00,
2013-01-11 16:23:00,47.7,43.1,30.08,South,173,4.0,13.0,84,0.01,,---,0.01,VWS V14.00,2013-01-11 21:23:00,
2013-01-11 16:28:00,47.6,43.0,30.08,South,173,9.0,9.0,84,0.01,,---,0.01,VWS V14.00,2013-01-11 21:28:00,
2013-01-11 16:33:00,47.6,43.0,30.08,SW,217,1.0,10.0,84,0.01,,---,0.01,VWS V14.00,2013-01-11 21:33:00,
2013-01-11 16:38:00,47.6,43.0,30.08,South,174,8.0,10.0,84,0.01,,---,0.01,VWS V14.00,2013-01-11 21:38:00,
2013-01-11 16:43:00,47.6,43.0,30.08,South,189,7.0,10.0,84,0.01,,---,0.01,VWS V14.00,2013-01-11 21:43:00,
2013-01-11 16:48:00,47.6,43.0,30.08,SSW,192,2.0,10.0,84,0.01,,---,0.01,VWS V14.00,2013-01-11 21:48:00,
2013-01-11 16:53:00,47.5,42.9,30.08,South,178,0.0,10.0,84,0.01,,---,0.01,VWS V14.00,2013-01-11 21:53:00,
2013-01-11 16:58:00,47.4,42.8,30.08,SW,223,4.0,5.0,84,0.00,,---,0.01,VWS V14.00,2013-01-11 21:58:00,
2013-01-11 17:03:00,47.4,42.8,30.08,SW,223,1.0,7.0,84,0.00,,---,0.01,VWS V14.00,2013-01-11 22:03:00,
2013-01-11 17:08:00,47.3,42.7,30.09,SSW,196,4.0,7.0,84,0.00,,---,0.01,VWS V14.00,2013-01-11 22:08:00,
2013-01-11 17:13:00,47.3,42.7,30.08,SSW,197,0.0,7.0,84,0.00,,---,0.01,VWS V14.00,2013-01-11 22:13:00,
2013-01-11 17:18:00,47.3,42.4,30.08,SSW,198,0.0,8.0,83,0.00,,---,0.01,VWS V14.00,2013-01-11 22:18:00,
2013-01-11 17:23:00,47.2,42.3,30.08,SSW,200,3.0,8.0,83,0.00,,---,0.01,VWS V14.00,2013-01-11 22:23:00,
2013-01-11 17:28:00,47.2,42.3,30.08,SW,223,2.0,4.0,83,0.00,,---,0.01,VWS V14.00,2013-01-11 22:28:00,
2013-01-11 17:33:00,47.2,42.3,30.08,SSW,199,5.0,6.0,83,0.00,,---,0.01,VWS V14.00,2013-01-11 22:33:00,
2013-01-11 17:38:00,47.1,42.2,30.08,SW,221,3.0,7.0,83,0.00,,---,0.01,VWS V14.00,2013-01-11 22:38:00,
2013-01-11 17:43:00,47.0,42.4,30.08,SSW,203,1.0,7.0,84,0.00,,---,0.01,VWS V14.00,2013-01-11 22:43:00,
2013-01-11 17:48:00,47.0,42.4,30.08,SW,227,3.0,8.0,84,0.00,,---,0.01,VWS V14.00,2013-01-11 22:48:00,
2013-01-11 17:53:00,47.0,42.4,30.07,SSW,202,2.0,8.0,84,0.00,,---,0.01,VWS V14.00,2013-01-11 22:53:00,
2013-01-11 17:58:00,46.9,42.3,30.07,SSW,211,3.0,3.0,84,0.00,,---,0.01,VWS V14.00,2013-01-11 22:58:00,
2013-01-11 18:03:00,46.7,42.1,30.07,SSW,200,6.0,8.0,84,0.00,,---,0.01,VWS V14.00,2013-01-11 23:03:00,
2013-01-11 18:08:00,46.7,42.1,30.07,SSW,198,3.0,8.0,84,0.00,,---,0.01,VWS V14.00,2013-01-11 23:08:00,
2013-01-11 18:13:00,46.7,42.4,30.07,South,188,4.0,8.0,85,0.00,,---,0.01,VWS V14.00,2013-01-11 23:13:00,
2013-01-11 18:18:00,46.8,42.5,30.06,South,174,6.0,11.0,85,0.00,,---,0.01,VWS V14.00,2013-01-11 23:18:00,
2013-01-11 18:23:00,47.2,42.9,30.06,SSE,167,6.0,11.0,85,0.00,,---,0.01,VWS V14.00,2013-01-11 23:23:00,
2013-01-11 18:28:00,47.5,43.2,30.07,South,177,4.0,5.0,85,0.00,,---,0.01,VWS V14.00,2013-01-11 23:28:00,
2013-01-11 18:33:00,47.6,43.3,30.07,South,189,0.0,6.0,85,0.00,,---,0.01,VWS V14.00,2013-01-11 23:33:00,
2013-01-11 18:38:00,47.6,43.3,30.07,South,188,2.0,6.0,85,0.00,,---,0.01,VWS V14.00,2013-01-11 23:38:00,
2013-01-11 18:43:00,47.4,43.1,30.07,South,181,5.0,7.0,85,0.00,,---,0.01,VWS V14.00,2013-01-11 23:43:00,
2013-01-11 18:48:00,47.6,43.6,30.07,SW,221,4.0,7.0,86,0.00,,---,0.01,VWS V14.00,2013-01-11 23:48:00,
2013-01-11 18:53:00,47.4,42.8,30.07,NW,314,4.0,8.0,84,0.00,,---,0.01,VWS V14.00,2013-01-11 23:53:00,
2013-01-11 18:58:00,46.4,41.8,30.07,NNW,342,0.0,1.0,84,0.00,,---,0.01,VWS V14.00,2013-01-11 23:58:00,
2013-01-11 19:03:00,46.0,42.0,30.08,NNW,343,0.0,1.0,86,0.00,,---,0.01,VWS V14.00,2013-01-12 00:03:00,
2013-01-11 19:08:00,46.0,42.0,30.08,NNW,342,0.0,6.0,86,0.00,,---,0.01,VWS V14.00,2013-01-12 00:08:00,
2013-01-11 19:13:00,46.1,42.5,30.08,NNW,342,1.0,6.0,87,0.00,,---,0.01,VWS V14.00,2013-01-12 00:13:00,
2013-01-11 19:18:00,46.1,42.2,30.07,West,261,0.0,6.0,86,0.00,,---,0.01,VWS V14.00,2013-01-12 00:18:00,
2013-01-11 19:23:00,45.8,42.2,30.07,West,261,3.0,6.0,87,0.00,,---,0.01,VWS V14.00,2013-01-12 00:23:00,
2013-01-11 19:28:00,46.0,42.3,30.07,West,261,0.0,0.0,87,0.00,,---,0.01,VWS V14.00,2013-01-12 00:28:00,
2013-01-11 19:33:00,46.1,42.5,30.07,West,261,0.0,4.0,87,0.00,,---,0.01,VWS V14.00,2013-01-12 00:33:00,
2013-01-11 19:38:00,46.2,42.5,30.07,West,259,4.0,5.0,87,0.00,,---,0.01,VWS V14.00,2013-01-12 00:38:00,
2013-01-11 19:43:00,46.0,42.3,30.07,WSW,258,3.0,5.0,87,0.00,,---,0.01,VWS V14.00,2013-01-12 00:43:00,
2013-01-11 19:48:00,45.6,42.0,30.06,WSW,258,0.0,5.0,87,0.00,,---,0.01,VWS V14.00,2013-01-12 00:48:00,
2013-01-11 19:53:00,45.2,41.6,30.06,WSW,258,0.0,5.0,87,0.00,,---,0.01,VWS V14.00,2013-01-12 00:53:00,
2013-01-11 19:58:00,45.0,41.7,30.06,WSW,258,0.0,0.0,88,0.00,,---,0.01,VWS V14.00,2013-01-12 00:58:00,
2013-01-11 20:03:00,44.7,41.4,30.06,WSW,258,0.0,3.0,88,0.00,,---,0.01,VWS V14.00,2013-01-12 01:03:00,
2013-01-11 20:08:00,44.8,41.8,30.06,WSW,258,0.0,3.0,89,0.00,,---,0.01,VWS V14.00,2013-01-12 01:08:00,
2013-01-11 20:13:00,44.9,41.9,30.06,WSW,258,0.0,3.0,89,0.00,,---,0.01,VWS V14.00,2013-01-12 01:13:00,
2013-01-11 20:18:00,44.8,41.8,30.06,WSW,258,0.0,3.0,89,0.00,,---,0.01,VWS V14.00,2013-01-12 01:18:00,
2013-01-11 20:23:00,45.0,42.2,30.07,WSW,258,1.0,3.0,90,0.00,,---,0.01,VWS V14.00,2013-01-12 01:23:00,
2013-01-11 20:28:00,44.9,41.9,30.06,WSW,258,0.0,0.0,89,0.00,,---,0.01,VWS V14.00,2013-01-12 01:28:00,
2013-01-11 20:33:00,44.9,42.2,30.07,WSW,258,0.0,4.0,90,0.00,,---,0.01,VWS V14.00,2013-01-12 01:33:00,
2013-01-11 20:38:00,44.9,41.9,30.07,WSW,258,0.0,4.0,89,0.00,,---,0.01,VWS V14.00,2013-01-12 01:38:00,
2013-01-11 20:43:00,44.9,42.2,30.06,WSW,258,0.0,4.0,90,0.00,,---,0.01,VWS V14.00,2013-01-12 01:43:00,
2013-01-11 20:48:00,45.0,42.2,30.06,WSW,258,0.0,4.0,90,0.00,,---,0.01,VWS V14.00,2013-01-12 01:48:00,
2013-01-11 20:53:00,44.7,42.0,30.07,WSW,258,0.0,4.0,90,0.00,,---,0.01,VWS V14.00,2013-01-12 01:53:00,
2013-01-11 20:58:00,44.9,42.2,30.07,WSW,258,0.0,3.0,90,0.00,,---,0.01,VWS V14.00,2013-01-12 01:58:00,
2013-01-11 21:03:00,44.9,42.2,30.06,WSW,258,3.0,3.0,90,0.00,,---,0.01,VWS V14.00,2013-01-12 02:03:00,
2013-01-11 21:08:00,45.1,42.3,30.07,WSW,258,3.0,4.0,90,0.00,,---,0.01,VWS V14.00,2013-01-12 02:08:00,
2013-01-11 21:13:00,45.0,42.2,30.06,WSW,258,0.0,4.0,90,0.00,,---,0.01,VWS V14.00,2013-01-12 02:13:00,
2013-01-11 21:18:00,44.5,41.8,30.06,WSW,258,1.0,5.0,90,0.00,,---,0.01,VWS V14.00,2013-01-12 02:18:00,
2013-01-11 21:23:00,44.6,41.8,30.07,WSW,258,0.0,5.0,90,0.00,,---,0.01,VWS V14.00,2013-01-12 02:23:00,
2013-01-11 21:28:00,44.8,42.0,30.06,WSW,258,0.0,0.0,90,0.00,,---,0.01,VWS V14.00,2013-01-12 02:28:00,
2013-01-11 21:33:00,44.7,42.0,30.06,WSW,258,1.0,4.0,90,0.00,,---,0.01,VWS V14.00,2013-01-12 02:33:00,
2013-01-11 21:38:00,44.7,42.0,30.07,WSW,258,0.0,4.0,90,0.00,,---,0.01,VWS V14.00,2013-01-12 02:38:00,
2013-01-11 21:43:00,44.2,41.5,30.07,WSW,258,0.0,4.0,90,0.00,,---,0.01,VWS V14.00,2013-01-12 02:43:00,
2013-01-11 21:48:00,44.3,41.8,30.07,WSW,258,2.0,4.0,91,0.00,,---,0.01,VWS V14.00,2013-01-12 02:48:00,
2013-01-11 21:53:00,44.4,41.9,30.07,WSW,258,1.0,4.0,91,0.00,,---,0.01,VWS V14.00,2013-01-12 02:53:00,
2013-01-11 21:58:00,44.9,42.7,30.07,South,178,0.0,4.0,92,0.00,,---,0.01,VWS V14.00,2013-01-12 02:58:00,
2013-01-11 22:03:00,44.9,42.4,30.06,South,179,0.0,5.0,91,0.00,,---,0.01,VWS V14.00,2013-01-12 03:03:00,
2013-01-11 22:08:00,43.7,40.7,30.07,South,180,0.0,5.0,89,0.00,,---,0.01,VWS V14.00,2013-01-12 03:08:00,
2013-01-11 22:13:00,43.3,40.8,30.07,SSW,213,1.0,5.0,91,0.00,,---,0.01,VWS V14.00,2013-01-12 03:13:00,
2013-01-11 22:18:00,43.9,41.7,30.06,SW,215,2.0,5.0,92,0.00,,---,0.01,VWS V14.00,2013-01-12 03:18:00,
2013-01-11 22:23:00,44.5,42.3,30.06,SW,215,0.0,5.0,92,0.00,,---,0.01,VWS V14.00,2013-01-12 03:23:00,
2013-01-11 22:28:00,44.7,42.5,30.06,SW,219,0.0,1.0,92,0.00,,---,0.01,VWS V14.00,2013-01-12 03:28:00,
2013-01-11 22:33:00,44.6,42.1,30.06,SW,221,3.0,4.0,91,0.00,,---,0.01,VWS V14.00,2013-01-12 03:33:00,
2013-01-11 22:38:00,44.6,42.4,30.06,SW,221,0.0,4.0,92,0.00,,---,0.01,VWS V14.00,2013-01-12 03:38:00,
2013-01-11 22:43:00,44.5,42.0,30.06,SW,221,0.0,4.0,91,0.00,,---,0.01,VWS V14.00,2013-01-12 03:43:00,
2013-01-11 22:48:00,44.5,42.3,30.06,SW,221,5.0,5.0,92,0.00,,---,0.01,VWS V14.00,2013-01-12 03:48:00,
2013-01-11 22:53:00,44.8,42.6,30.06,SSW,211,3.0,7.0,92,0.00,,---,0.01,VWS V14.00,2013-01-12 03:53:00,
2013-01-11 22:58:00,44.9,42.7,30.06,SW,222,2.0,5.0,92,0.00,,---,0.01,VWS V14.00,2013-01-12 03:58:00,
2013-01-11 23:03:00,44.8,42.6,30.06,SW,216,5.0,5.0,92,0.00,,---,0.01,VWS V14.00,2013-01-12 04:03:00,
2013-01-11 23:08:00,44.5,42.3,30.06,SW,219,3.0,5.0,92,0.00,,---,0.01,VWS V14.00,2013-01-12 04:08:00,
2013-01-11 23:13:00,44.2,42.0,30.06,SW,218,3.0,5.0,92,0.00,,---,0.01,VWS V14.00,2013-01-12 04:13:00,
2013-01-11 23:18:00,43.9,41.5,30.06,SW,219,1.0,5.0,91,0.00,,---,0.01,VWS V14.00,2013-01-12 04:18:00,
2013-01-11 23:23:00,43.8,41.6,30.06,SW,219,0.0,5.0,92,0.00,,---,0.01,VWS V14.00,2013-01-12 04:23:00,
2013-01-11 23:28:00,43.8,41.6,30.06,SW,220,0.0,0.0,92,0.00,,---,0.01,VWS V14.00,2013-01-12 04:28:00,
2013-01-11 23:33:00,43.8,41.6,30.06,SW,220,0.0,2.0,92,0.00,,---,0.01,VWS V14.00,2013-01-12 04:33:00,
2013-01-11 23:38:00,44.0,41.8,30.06,SW,220,0.0,2.0,92,0.00,,---,0.01,VWS V14.00,2013-01-12 04:38:00,
2013-01-11 23:43:00,44.1,41.9,30.06,SW,220,0.0,3.0,92,0.00,,---,0.01,VWS V14.00,2013-01-12 04:43:00,
2013-01-11 23:48:00,44.2,42.0,30.06,SW,220,0.0,3.0,92,0.00,,---,0.01,VWS V14.00,2013-01-12 04:48:00,
2013-01-11 23:53:00,44.2,42.0,30.06,SW,220,0.0,3.0,92,0.00,,---,0.01,VWS V14.00,2013-01-12 04:53:00,
2013-01-11 23:58:00,44.2,42.0,30.06,SW,220,0.0,0.0,92,0.00,,---,0.00,VWS V14.00,2013-01-12 04:58:00,